sensor_id;sensor_type;location;lat;lon;timestamp;P1;durP1;ratioP1;P2;durP2;ratioP2
9481;SDS011;4779;48.062;11.672;2024-01-30T00:01:24;5.37;;;4.23;;
9481;SDS011;4779;48.062;11.672;2024-01-30T00:03:51;4.87;;;3.90;;
9481;SDS011;4779;48.062;11.672;2024-01-30T00:06:19;6.07;;;4.77;;
9481;SDS011;4779;48.062;11.672;2024-01-30T00:08:47;6.43;;;4.33;;
9481;SDS011;4779;48.062;11.672;2024-01-30T00:11:15;5.00;;;4.13;;
9481;SDS011;4779;48.062;11.672;2024-01-30T00:13:42;5.67;;;4.30;;
9481;SDS011;4779;48.062;11.672;2024-01-30T00:16:19;5.60;;;4.13;;
9481;SDS011;4779;48.062;11.672;2024-01-30T00:18:46;6.33;;;4.40;;
9481;SDS011;4779;48.062;11.672;2024-01-30T00:21:13;6.03;;;4.00;;
9481;SDS011;4779;48.062;11.672;2024-01-30T00:23:42;5.23;;;3.67;;
9481;SDS011;4779;48.062;11.672;2024-01-30T00:26:09;5.27;;;3.77;;
9481;SDS011;4779;48.062;11.672;2024-01-30T00:28:36;3.93;;;3.47;;
9481;SDS011;4779;48.062;11.672;2024-01-30T00:31:04;4.43;;;3.90;;
9481;SDS011;4779;48.062;11.672;2024-01-30T00:33:31;5.20;;;4.30;;
9481;SDS011;4779;48.062;11.672;2024-01-30T00:35:58;5.73;;;3.80;;
9481;SDS011;4779;48.062;11.672;2024-01-30T00:38:25;5.33;;;4.23;;
9481;SDS011;4779;48.062;11.672;2024-01-30T00:40:53;5.73;;;4.13;;
9481;SDS011;4779;48.062;11.672;2024-01-30T00:43:20;5.17;;;4.23;;
9481;SDS011;4779;48.062;11.672;2024-01-30T00:45:49;5.77;;;3.87;;
9481;SDS011;4779;48.062;11.672;2024-01-30T00:48:17;5.47;;;4.13;;
9481;SDS011;4779;48.062;11.672;2024-01-30T00:50:44;5.03;;;4.13;;
9481;SDS011;4779;48.062;11.672;2024-01-30T00:53:11;6.47;;;4.20;;
9481;SDS011;4779;48.062;11.672;2024-01-30T00:55:38;5.43;;;4.03;;
9481;SDS011;4779;48.062;11.672;2024-01-30T00:58:06;5.53;;;4.10;;
9481;SDS011;4779;48.062;11.672;2024-01-30T01:00:33;5.13;;;3.67;;
9481;SDS011;4779;48.062;11.672;2024-01-30T01:03:00;5.50;;;3.77;;
9481;SDS011;4779;48.062;11.672;2024-01-30T01:05:28;5.27;;;3.77;;
9481;SDS011;4779;48.062;11.672;2024-01-30T01:07:55;5.03;;;3.63;;
9481;SDS011;4779;48.062;11.672;2024-01-30T01:10:22;4.63;;;3.67;;
9481;SDS011;4779;48.062;11.672;2024-01-30T01:12:49;5.80;;;3.87;;
9481;SDS011;4779;48.062;11.672;2024-01-30T01:15:17;5.03;;;4.00;;
9481;SDS011;4779;48.062;11.672;2024-01-30T01:17:44;4.40;;;3.57;;
9481;SDS011;4779;48.062;11.672;2024-01-30T01:20:11;4.83;;;3.40;;
9481;SDS011;4779;48.062;11.672;2024-01-30T01:22:38;4.87;;;4.10;;
9481;SDS011;4779;48.062;11.672;2024-01-30T01:25:06;6.17;;;3.47;;
9481;SDS011;4779;48.062;11.672;2024-01-30T01:27:36;4.63;;;3.50;;
9481;SDS011;4779;48.062;11.672;2024-01-30T01:30:11;4.87;;;3.43;;
9481;SDS011;4779;48.062;11.672;2024-01-30T01:32:45;4.47;;;3.83;;
9481;SDS011;4779;48.062;11.672;2024-01-30T01:35:16;4.37;;;3.37;;
9481;SDS011;4779;48.062;11.672;2024-01-30T01:37:43;4.80;;;3.47;;
9481;SDS011;4779;48.062;11.672;2024-01-30T01:40:10;4.77;;;3.77;;
9481;SDS011;4779;48.062;11.672;2024-01-30T01:42:37;4.50;;;3.50;;
9481;SDS011;4779;48.062;11.672;2024-01-30T01:45:04;3.27;;;2.97;;
9481;SDS011;4779;48.062;11.672;2024-01-30T01:47:31;4.97;;;3.70;;
9481;SDS011;4779;48.062;11.672;2024-01-30T01:50:00;5.37;;;3.73;;
9481;SDS011;4779;48.062;11.672;2024-01-30T01:52:27;3.80;;;3.40;;
9481;SDS011;4779;48.062;11.672;2024-01-30T01:54:54;3.63;;;3.33;;
9481;SDS011;4779;48.062;11.672;2024-01-30T01:57:21;4.33;;;3.27;;
9481;SDS011;4779;48.062;11.672;2024-01-30T01:59:49;3.93;;;3.23;;
9481;SDS011;4779;48.062;11.672;2024-01-30T02:02:16;4.23;;;3.13;;
9481;SDS011;4779;48.062;11.672;2024-01-30T02:04:45;4.70;;;3.40;;
9481;SDS011;4779;48.062;11.672;2024-01-30T02:07:13;3.87;;;3.20;;
9481;SDS011;4779;48.062;11.672;2024-01-30T02:09:41;4.33;;;3.63;;
9481;SDS011;4779;48.062;11.672;2024-01-30T02:12:08;4.63;;;3.50;;
9481;SDS011;4779;48.062;11.672;2024-01-30T02:14:43;4.43;;;3.60;;
9481;SDS011;4779;48.062;11.672;2024-01-30T02:17:11;3.80;;;3.40;;
9481;SDS011;4779;48.062;11.672;2024-01-30T02:19:38;4.40;;;3.60;;
9481;SDS011;4779;48.062;11.672;2024-01-30T02:22:07;3.73;;;2.90;;
9481;SDS011;4779;48.062;11.672;2024-01-30T02:24:34;3.23;;;2.80;;
9481;SDS011;4779;48.062;11.672;2024-01-30T02:27:01;3.40;;;3.10;;
9481;SDS011;4779;48.062;11.672;2024-01-30T02:29:28;4.07;;;3.23;;
9481;SDS011;4779;48.062;11.672;2024-01-30T02:31:55;4.60;;;3.10;;
9481;SDS011;4779;48.062;11.672;2024-01-30T02:34:22;3.90;;;3.20;;
9481;SDS011;4779;48.062;11.672;2024-01-30T02:36:49;4.13;;;3.07;;
9481;SDS011;4779;48.062;11.672;2024-01-30T02:39:18;3.57;;;3.03;;
9481;SDS011;4779;48.062;11.672;2024-01-30T02:41:45;5.03;;;3.00;;
9481;SDS011;4779;48.062;11.672;2024-01-30T02:44:12;4.23;;;3.60;;
9481;SDS011;4779;48.062;11.672;2024-01-30T02:46:39;3.97;;;3.20;;
9481;SDS011;4779;48.062;11.672;2024-01-30T02:49:06;5.73;;;3.17;;
9481;SDS011;4779;48.062;11.672;2024-01-30T02:51:33;3.90;;;2.93;;
9481;SDS011;4779;48.062;11.672;2024-01-30T02:54:00;4.30;;;3.43;;
9481;SDS011;4779;48.062;11.672;2024-01-30T02:56:28;4.00;;;3.13;;
9481;SDS011;4779;48.062;11.672;2024-01-30T02:58:55;3.67;;;3.00;;
9481;SDS011;4779;48.062;11.672;2024-01-30T03:01:22;4.07;;;2.93;;
9481;SDS011;4779;48.062;11.672;2024-01-30T03:03:49;3.57;;;2.87;;
9481;SDS011;4779;48.062;11.672;2024-01-30T03:06:17;4.10;;;2.80;;
9481;SDS011;4779;48.062;11.672;2024-01-30T03:08:45;3.27;;;2.70;;
9481;SDS011;4779;48.062;11.672;2024-01-30T03:11:12;4.60;;;2.97;;
9481;SDS011;4779;48.062;11.672;2024-01-30T03:13:40;5.20;;;3.50;;
9481;SDS011;4779;48.062;11.672;2024-01-30T03:16:08;4.83;;;3.60;;
9481;SDS011;4779;48.062;11.672;2024-01-30T03:18:35;5.10;;;3.20;;
9481;SDS011;4779;48.062;11.672;2024-01-30T03:21:02;5.70;;;3.83;;
9481;SDS011;4779;48.062;11.672;2024-01-30T03:23:29;4.50;;;3.13;;
9481;SDS011;4779;48.062;11.672;2024-01-30T03:25:57;5.33;;;3.30;;
9481;SDS011;4779;48.062;11.672;2024-01-30T03:28:24;4.00;;;3.37;;
9481;SDS011;4779;48.062;11.672;2024-01-30T03:30:52;3.97;;;3.00;;
9481;SDS011;4779;48.062;11.672;2024-01-30T03:33:19;4.23;;;2.97;;
9481;SDS011;4779;48.062;11.672;2024-01-30T03:35:46;3.37;;;2.47;;
9481;SDS011;4779;48.062;11.672;2024-01-30T03:38:13;2.80;;;2.60;;
9481;SDS011;4779;48.062;11.672;2024-01-30T03:40:40;3.57;;;2.60;;
9481;SDS011;4779;48.062;11.672;2024-01-30T03:43:07;3.20;;;2.90;;
9481;SDS011;4779;48.062;11.672;2024-01-30T03:45:34;2.70;;;2.47;;
9481;SDS011;4779;48.062;11.672;2024-01-30T03:48:03;3.50;;;2.90;;
9481;SDS011;4779;48.062;11.672;2024-01-30T03:50:30;4.27;;;3.00;;
9481;SDS011;4779;48.062;11.672;2024-01-30T03:52:57;3.77;;;2.73;;
9481;SDS011;4779;48.062;11.672;2024-01-30T03:55:24;4.23;;;3.00;;
9481;SDS011;4779;48.062;11.672;2024-01-30T03:57:51;3.83;;;2.70;;
9481;SDS011;4779;48.062;11.672;2024-01-30T04:00:18;3.00;;;2.70;;
9481;SDS011;4779;48.062;11.672;2024-01-30T04:02:45;3.53;;;2.70;;
9481;SDS011;4779;48.062;11.672;2024-01-30T04:05:14;3.40;;;2.67;;
9481;SDS011;4779;48.062;11.672;2024-01-30T04:07:41;3.40;;;2.80;;
9481;SDS011;4779;48.062;11.672;2024-01-30T04:10:09;3.00;;;2.70;;
9481;SDS011;4779;48.062;11.672;2024-01-30T04:12:36;3.20;;;2.70;;
9481;SDS011;4779;48.062;11.672;2024-01-30T04:15:03;4.97;;;3.27;;
9481;SDS011;4779;48.062;11.672;2024-01-30T04:17:31;6.70;;;5.60;;
9481;SDS011;4779;48.062;11.672;2024-01-30T04:19:58;10.37;;;7.10;;
9481;SDS011;4779;48.062;11.672;2024-01-30T04:22:26;10.57;;;7.30;;
9481;SDS011;4779;48.062;11.672;2024-01-30T04:24:53;8.90;;;6.30;;
9481;SDS011;4779;48.062;11.672;2024-01-30T04:27:20;7.23;;;5.53;;
9481;SDS011;4779;48.062;11.672;2024-01-30T04:29:47;6.67;;;5.07;;
9481;SDS011;4779;48.062;11.672;2024-01-30T04:32:14;5.73;;;4.67;;
9481;SDS011;4779;48.062;11.672;2024-01-30T04:34:40;5.47;;;4.40;;
9481;SDS011;4779;48.062;11.672;2024-01-30T04:37:07;7.30;;;4.77;;
9481;SDS011;4779;48.062;11.672;2024-01-30T04:39:35;5.60;;;4.67;;
9481;SDS011;4779;48.062;11.672;2024-01-30T04:42:02;5.97;;;4.27;;
9481;SDS011;4779;48.062;11.672;2024-01-30T04:44:30;5.10;;;3.83;;
9481;SDS011;4779;48.062;11.672;2024-01-30T04:46:57;4.57;;;3.30;;
9481;SDS011;4779;48.062;11.672;2024-01-30T04:49:26;3.57;;;2.93;;
9481;SDS011;4779;48.062;11.672;2024-01-30T04:51:54;3.33;;;2.73;;
9481;SDS011;4779;48.062;11.672;2024-01-30T04:54:21;2.70;;;2.27;;
9481;SDS011;4779;48.062;11.672;2024-01-30T04:56:49;3.10;;;2.57;;
9481;SDS011;4779;48.062;11.672;2024-01-30T04:59:16;3.13;;;2.70;;
9481;SDS011;4779;48.062;11.672;2024-01-30T05:01:43;2.87;;;2.60;;
9481;SDS011;4779;48.062;11.672;2024-01-30T05:04:10;3.57;;;2.90;;
9481;SDS011;4779;48.062;11.672;2024-01-30T05:06:37;6.03;;;4.97;;
9481;SDS011;4779;48.062;11.672;2024-01-30T05:09:04;5.13;;;4.07;;
9481;SDS011;4779;48.062;11.672;2024-01-30T05:11:31;3.27;;;2.93;;
9481;SDS011;4779;48.062;11.672;2024-01-30T05:14:04;3.30;;;2.80;;
9481;SDS011;4779;48.062;11.672;2024-01-30T05:16:31;5.13;;;4.20;;
9481;SDS011;4779;48.062;11.672;2024-01-30T05:18:59;6.60;;;5.67;;
9481;SDS011;4779;48.062;11.672;2024-01-30T05:21:26;11.47;;;10.27;;
9481;SDS011;4779;48.062;11.672;2024-01-30T05:23:53;15.30;;;13.63;;
9481;SDS011;4779;48.062;11.672;2024-01-30T05:26:20;15.30;;;13.70;;
9481;SDS011;4779;48.062;11.672;2024-01-30T05:28:48;11.07;;;9.87;;
9481;SDS011;4779;48.062;11.672;2024-01-30T05:31:16;10.10;;;8.60;;
9481;SDS011;4779;48.062;11.672;2024-01-30T05:33:43;11.77;;;9.37;;
9481;SDS011;4779;48.062;11.672;2024-01-30T05:36:11;8.43;;;7.07;;
9481;SDS011;4779;48.062;11.672;2024-01-30T05:38:38;5.47;;;4.63;;
9481;SDS011;4779;48.062;11.672;2024-01-30T05:41:05;3.50;;;3.20;;
9481;SDS011;4779;48.062;11.672;2024-01-30T05:43:32;3.10;;;2.80;;
9481;SDS011;4779;48.062;11.672;2024-01-30T05:45:59;2.70;;;2.50;;
9481;SDS011;4779;48.062;11.672;2024-01-30T05:48:28;3.00;;;2.70;;
9481;SDS011;4779;48.062;11.672;2024-01-30T05:50:56;3.77;;;2.70;;
9481;SDS011;4779;48.062;11.672;2024-01-30T05:53:25;3.50;;;3.00;;
9481;SDS011;4779;48.062;11.672;2024-01-30T05:55:52;3.13;;;2.50;;
9481;SDS011;4779;48.062;11.672;2024-01-30T05:58:18;3.30;;;3.00;;
9481;SDS011;4779;48.062;11.672;2024-01-30T06:00:46;3.43;;;3.13;;
9481;SDS011;4779;48.062;11.672;2024-01-30T06:03:13;4.97;;;3.63;;
9481;SDS011;4779;48.062;11.672;2024-01-30T06:05:42;5.03;;;4.37;;
9481;SDS011;4779;48.062;11.672;2024-01-30T06:08:09;5.90;;;5.27;;
9481;SDS011;4779;48.062;11.672;2024-01-30T06:10:35;5.63;;;4.87;;
9481;SDS011;4779;48.062;11.672;2024-01-30T06:13:05;8.70;;;5.93;;
9481;SDS011;4779;48.062;11.672;2024-01-30T06:15:32;6.30;;;5.43;;
9481;SDS011;4779;48.062;11.672;2024-01-30T06:18:00;4.77;;;3.90;;
9481;SDS011;4779;48.062;11.672;2024-01-30T06:20:27;7.07;;;3.90;;
9481;SDS011;4779;48.062;11.672;2024-01-30T06:22:55;6.47;;;5.80;;
9481;SDS011;4779;48.062;11.672;2024-01-30T06:25:22;8.13;;;7.33;;
9481;SDS011;4779;48.062;11.672;2024-01-30T06:27:51;7.90;;;7.03;;
9481;SDS011;4779;48.062;11.672;2024-01-30T06:30:18;8.73;;;6.60;;
9481;SDS011;4779;48.062;11.672;2024-01-30T06:32:45;7.53;;;6.43;;
9481;SDS011;4779;48.062;11.672;2024-01-30T06:35:12;7.43;;;6.00;;
9481;SDS011;4779;48.062;11.672;2024-01-30T06:37:39;6.90;;;5.63;;
9481;SDS011;4779;48.062;11.672;2024-01-30T06:40:08;5.83;;;5.23;;
9481;SDS011;4779;48.062;11.672;2024-01-30T06:42:36;6.27;;;5.10;;
9481;SDS011;4779;48.062;11.672;2024-01-30T06:45:03;4.90;;;4.40;;
9481;SDS011;4779;48.062;11.672;2024-01-30T06:47:31;5.90;;;4.50;;
9481;SDS011;4779;48.062;11.672;2024-01-30T06:49:58;4.67;;;3.70;;
9481;SDS011;4779;48.062;11.672;2024-01-30T06:52:27;4.70;;;3.80;;
9481;SDS011;4779;48.062;11.672;2024-01-30T06:54:54;4.50;;;3.93;;
9481;SDS011;4779;48.062;11.672;2024-01-30T06:57:22;3.33;;;3.03;;
9481;SDS011;4779;48.062;11.672;2024-01-30T06:59:49;3.97;;;3.10;;
9481;SDS011;4779;48.062;11.672;2024-01-30T07:02:16;4.47;;;2.70;;
9481;SDS011;4779;48.062;11.672;2024-01-30T07:04:43;3.17;;;2.20;;
9481;SDS011;4779;48.062;11.672;2024-01-30T07:07:10;2.60;;;2.40;;
9481;SDS011;4779;48.062;11.672;2024-01-30T07:09:38;3.30;;;2.40;;
9481;SDS011;4779;48.062;11.672;2024-01-30T07:12:06;3.43;;;2.80;;
9481;SDS011;4779;48.062;11.672;2024-01-30T07:14:35;5.37;;;3.47;;
9481;SDS011;4779;48.062;11.672;2024-01-30T07:17:02;7.30;;;5.00;;
9481;SDS011;4779;48.062;11.672;2024-01-30T07:19:29;8.87;;;6.30;;
9481;SDS011;4779;48.062;11.672;2024-01-30T07:21:56;17.67;;;12.27;;
9481;SDS011;4779;48.062;11.672;2024-01-30T07:24:23;20.80;;;12.83;;
9481;SDS011;4779;48.062;11.672;2024-01-30T07:26:50;17.00;;;10.13;;
9481;SDS011;4779;48.062;11.672;2024-01-30T07:29:17;24.23;;;16.33;;
9481;SDS011;4779;48.062;11.672;2024-01-30T07:31:46;40.23;;;22.53;;
9481;SDS011;4779;48.062;11.672;2024-01-30T07:34:13;44.77;;;26.83;;
9481;SDS011;4779;48.062;11.672;2024-01-30T07:36:40;45.00;;;26.93;;
9481;SDS011;4779;48.062;11.672;2024-01-30T07:39:07;40.87;;;24.77;;
9481;SDS011;4779;48.062;11.672;2024-01-30T07:41:35;41.13;;;23.43;;
9481;SDS011;4779;48.062;11.672;2024-01-30T07:44:02;35.23;;;21.67;;
9481;SDS011;4779;48.062;11.672;2024-01-30T07:46:30;30.67;;;19.87;;
9481;SDS011;4779;48.062;11.672;2024-01-30T07:48:58;28.40;;;17.37;;
9481;SDS011;4779;48.062;11.672;2024-01-30T07:51:25;24.70;;;15.13;;
9481;SDS011;4779;48.062;11.672;2024-01-30T07:53:53;20.20;;;13.03;;
9481;SDS011;4779;48.062;11.672;2024-01-30T07:56:20;15.50;;;9.87;;
9481;SDS011;4779;48.062;11.672;2024-01-30T07:58:47;13.93;;;8.90;;
9481;SDS011;4779;48.062;11.672;2024-01-30T08:01:14;12.60;;;7.73;;
9481;SDS011;4779;48.062;11.672;2024-01-30T08:03:42;11.03;;;7.57;;
9481;SDS011;4779;48.062;11.672;2024-01-30T08:06:10;9.13;;;6.07;;
9481;SDS011;4779;48.062;11.672;2024-01-30T08:08:37;7.17;;;5.07;;
9481;SDS011;4779;48.062;11.672;2024-01-30T08:11:04;6.57;;;5.00;;
9481;SDS011;4779;48.062;11.672;2024-01-30T08:13:32;7.60;;;5.10;;
9481;SDS011;4779;48.062;11.672;2024-01-30T08:15:59;7.80;;;5.00;;
9481;SDS011;4779;48.062;11.672;2024-01-30T08:18:26;6.13;;;4.67;;
9481;SDS011;4779;48.062;11.672;2024-01-30T08:20:53;6.43;;;4.50;;
9481;SDS011;4779;48.062;11.672;2024-01-30T08:23:22;7.30;;;4.70;;
9481;SDS011;4779;48.062;11.672;2024-01-30T08:25:49;6.00;;;4.40;;
9481;SDS011;4779;48.062;11.672;2024-01-30T08:28:16;5.80;;;4.27;;
9481;SDS011;4779;48.062;11.672;2024-01-30T08:30:43;7.10;;;4.47;;
9481;SDS011;4779;48.062;11.672;2024-01-30T08:33:10;5.40;;;3.50;;
9481;SDS011;4779;48.062;11.672;2024-01-30T08:35:37;4.80;;;3.80;;
9481;SDS011;4779;48.062;11.672;2024-01-30T08:38:07;4.77;;;3.47;;
9481;SDS011;4779;48.062;11.672;2024-01-30T08:40:35;4.10;;;3.30;;
9481;SDS011;4779;48.062;11.672;2024-01-30T08:43:02;5.03;;;3.70;;
9481;SDS011;4779;48.062;11.672;2024-01-30T08:45:29;5.87;;;3.63;;
9481;SDS011;4779;48.062;11.672;2024-01-30T08:47:57;5.13;;;3.23;;
9481;SDS011;4779;48.062;11.672;2024-01-30T08:50:23;6.57;;;3.60;;
9481;SDS011;4779;48.062;11.672;2024-01-30T08:52:51;6.67;;;3.47;;
9481;SDS011;4779;48.062;11.672;2024-01-30T08:55:18;5.13;;;3.43;;
9481;SDS011;4779;48.062;11.672;2024-01-30T08:57:46;3.13;;;2.80;;
9481;SDS011;4779;48.062;11.672;2024-01-30T09:00:17;4.03;;;3.10;;
9481;SDS011;4779;48.062;11.672;2024-01-30T09:02:44;4.27;;;3.27;;
9481;SDS011;4779;48.062;11.672;2024-01-30T09:05:11;5.63;;;2.47;;
9481;SDS011;4779;48.062;11.672;2024-01-30T09:07:38;3.40;;;2.60;;
9481;SDS011;4779;48.062;11.672;2024-01-30T09:10:06;2.40;;;2.17;;
9481;SDS011;4779;48.062;11.672;2024-01-30T09:12:33;3.60;;;2.60;;
9481;SDS011;4779;48.062;11.672;2024-01-30T09:15:02;3.80;;;2.60;;
9481;SDS011;4779;48.062;11.672;2024-01-30T09:17:29;2.10;;;1.90;;
9481;SDS011;4779;48.062;11.672;2024-01-30T09:19:56;2.10;;;2.00;;
9481;SDS011;4779;48.062;11.672;2024-01-30T09:22:23;2.30;;;2.00;;
9481;SDS011;4779;48.062;11.672;2024-01-30T09:24:50;3.23;;;2.43;;
9481;SDS011;4779;48.062;11.672;2024-01-30T09:27:17;2.83;;;1.90;;
9481;SDS011;4779;48.062;11.672;2024-01-30T09:29:45;2.33;;;2.13;;
9481;SDS011;4779;48.062;11.672;2024-01-30T09:32:13;3.20;;;2.60;;
9481;SDS011;4779;48.062;11.672;2024-01-30T09:34:40;3.93;;;2.10;;
9481;SDS011;4779;48.062;11.672;2024-01-30T09:37:08;3.97;;;2.10;;
9481;SDS011;4779;48.062;11.672;2024-01-30T09:39:40;2.50;;;2.30;;
9481;SDS011;4779;48.062;11.672;2024-01-30T09:42:09;2.83;;;2.43;;
9481;SDS011;4779;48.062;11.672;2024-01-30T09:44:44;3.77;;;1.93;;
9481;SDS011;4779;48.062;11.672;2024-01-30T09:47:14;2.93;;;2.30;;
9481;SDS011;4779;48.062;11.672;2024-01-30T09:49:42;2.17;;;1.70;;
9481;SDS011;4779;48.062;11.672;2024-01-30T09:52:10;2.67;;;1.85;;
9481;SDS011;4779;48.062;11.672;2024-01-30T09:54:38;3.33;;;2.15;;
9481;SDS011;4779;48.062;11.672;2024-01-30T09:57:05;3.15;;;2.15;;
9481;SDS011;4779;48.062;11.672;2024-01-30T09:59:33;3.63;;;2.15;;
9481;SDS011;4779;48.062;11.672;2024-01-30T10:02:00;4.45;;;1.98;;
9481;SDS011;4779;48.062;11.672;2024-01-30T10:04:30;2.45;;;2.20;;
9481;SDS011;4779;48.062;11.672;2024-01-30T10:06:58;4.00;;;2.30;;
9481;SDS011;4779;48.062;11.672;2024-01-30T10:09:31;3.25;;;2.38;;
9481;SDS011;4779;48.062;11.672;2024-01-30T10:12:00;3.00;;;1.95;;
9481;SDS011;4779;48.062;11.672;2024-01-30T10:14:28;3.67;;;2.03;;
9481;SDS011;4779;48.062;11.672;2024-01-30T10:16:57;2.08;;;1.90;;
9481;SDS011;4779;48.062;11.672;2024-01-30T10:19:24;2.67;;;2.00;;
9481;SDS011;4779;48.062;11.672;2024-01-30T10:21:56;2.60;;;2.10;;
9481;SDS011;4779;48.062;11.672;2024-01-30T10:24:24;2.22;;;2.03;;
9481;SDS011;4779;48.062;11.672;2024-01-30T10:26:50;2.38;;;2.00;;
9481;SDS011;4779;48.062;11.672;2024-01-30T10:29:17;2.45;;;2.25;;
9481;SDS011;4779;48.062;11.672;2024-01-30T10:31:44;4.00;;;2.00;;
9481;SDS011;4779;48.062;11.672;2024-01-30T10:34:12;3.28;;;2.13;;
9481;SDS011;4779;48.062;11.672;2024-01-30T10:36:40;1.50;;;1.40;;
9481;SDS011;4779;48.062;11.672;2024-01-30T10:39:08;2.10;;;1.70;;
9481;SDS011;4779;48.062;11.672;2024-01-30T10:41:37;3.00;;;1.90;;
9481;SDS011;4779;48.062;11.672;2024-01-30T10:44:10;1.50;;;1.40;;
9481;SDS011;4779;48.062;11.672;2024-01-30T10:46:38;1.85;;;1.48;;
9481;SDS011;4779;48.062;11.672;2024-01-30T10:49:05;2.92;;;1.70;;
9481;SDS011;4779;48.062;11.672;2024-01-30T10:51:32;2.10;;;1.73;;
9481;SDS011;4779;48.062;11.672;2024-01-30T10:54:03;3.75;;;1.30;;
9481;SDS011;4779;48.062;11.672;2024-01-30T10:56:33;1.30;;;1.20;;
9481;SDS011;4779;48.062;11.672;2024-01-30T10:59:01;1.55;;;1.20;;
9481;SDS011;4779;48.062;11.672;2024-01-30T11:01:28;2.33;;;1.40;;
9481;SDS011;4779;48.062;11.672;2024-01-30T11:04:02;1.88;;;1.20;;
9481;SDS011;4779;48.062;11.672;2024-01-30T11:06:29;1.70;;;1.20;;
9481;SDS011;4779;48.062;11.672;2024-01-30T11:09:00;1.45;;;1.33;;
9481;SDS011;4779;48.062;11.672;2024-01-30T11:11:29;2.75;;;1.65;;
9481;SDS011;4779;48.062;11.672;2024-01-30T11:14:01;2.17;;;1.00;;
9481;SDS011;4779;48.062;11.672;2024-01-30T11:16:30;1.55;;;1.10;;
9481;SDS011;4779;48.062;11.672;2024-01-30T11:19:00;1.40;;;0.98;;
9481;SDS011;4779;48.062;11.672;2024-01-30T11:21:27;1.80;;;1.00;;
9481;SDS011;4779;48.062;11.672;2024-01-30T11:23:55;1.95;;;1.05;;
9481;SDS011;4779;48.062;11.672;2024-01-30T11:26:23;1.27;;;0.90;;
9481;SDS011;4779;48.062;11.672;2024-01-30T11:28:54;3.10;;;1.20;;
9481;SDS011;4779;48.062;11.672;2024-01-30T11:31:22;1.35;;;0.93;;
9481;SDS011;4779;48.062;11.672;2024-01-30T11:33:52;1.77;;;0.80;;
9481;SDS011;4779;48.062;11.672;2024-01-30T11:36:20;2.45;;;1.10;;
9481;SDS011;4779;48.062;11.672;2024-01-30T11:38:51;1.20;;;1.10;;
9481;SDS011;4779;48.062;11.672;2024-01-30T11:41:18;4.13;;;1.48;;
9481;SDS011;4779;48.062;11.672;2024-01-30T11:43:51;2.13;;;1.13;;
9481;SDS011;4779;48.062;11.672;2024-01-30T11:46:18;1.60;;;1.38;;
9481;SDS011;4779;48.062;11.672;2024-01-30T11:48:46;1.77;;;1.10;;
9481;SDS011;4779;48.062;11.672;2024-01-30T11:51:16;1.38;;;1.27;;
9481;SDS011;4779;48.062;11.672;2024-01-30T11:53:45;1.17;;;1.08;;
9481;SDS011;4779;48.062;11.672;2024-01-30T11:56:16;2.42;;;1.20;;
9481;SDS011;4779;48.062;11.672;2024-01-30T11:58:43;4.03;;;1.25;;
9481;SDS011;4779;48.062;11.672;2024-01-30T12:01:10;2.40;;;1.35;;
9481;SDS011;4779;48.062;11.672;2024-01-30T12:03:38;3.22;;;1.63;;
9481;SDS011;4779;48.062;11.672;2024-01-30T12:06:06;2.17;;;1.10;;
9481;SDS011;4779;48.062;11.672;2024-01-30T12:08:34;1.55;;;1.27;;
9481;SDS011;4779;48.062;11.672;2024-01-30T12:11:01;1.20;;;1.10;;
9481;SDS011;4779;48.062;11.672;2024-01-30T12:13:30;1.25;;;0.98;;
9481;SDS011;4779;48.062;11.672;2024-01-30T12:15:57;1.52;;;1.42;;
9481;SDS011;4779;48.062;11.672;2024-01-30T12:18:24;2.22;;;1.45;;
9481;SDS011;4779;48.062;11.672;2024-01-30T12:20:58;3.88;;;1.42;;
9481;SDS011;4779;48.062;11.672;2024-01-30T12:23:26;1.80;;;1.40;;
9481;SDS011;4779;48.062;11.672;2024-01-30T12:25:54;3.85;;;1.40;;
9481;SDS011;4779;48.062;11.672;2024-01-30T12:28:21;1.63;;;1.52;;
9481;SDS011;4779;48.062;11.672;2024-01-30T12:30:48;2.80;;;1.52;;
9481;SDS011;4779;48.062;11.672;2024-01-30T12:33:18;2.47;;;1.60;;
9481;SDS011;4779;48.062;11.672;2024-01-30T12:35:46;2.30;;;1.70;;
9481;SDS011;4779;48.062;11.672;2024-01-30T12:38:13;1.80;;;1.70;;
9481;SDS011;4779;48.062;11.672;2024-01-30T12:40:41;2.53;;;1.48;;
9481;SDS011;4779;48.062;11.672;2024-01-30T12:43:10;5.03;;;2.17;;
9481;SDS011;4779;48.062;11.672;2024-01-30T12:45:37;3.25;;;1.85;;
9481;SDS011;4779;48.062;11.672;2024-01-30T12:48:04;3.45;;;1.90;;
9481;SDS011;4779;48.062;11.672;2024-01-30T12:50:32;3.63;;;1.95;;
9481;SDS011;4779;48.062;11.672;2024-01-30T12:53:00;2.45;;;1.50;;
9481;SDS011;4779;48.062;11.672;2024-01-30T12:55:30;4.65;;;2.20;;
9481;SDS011;4779;48.062;11.672;2024-01-30T12:57:58;3.63;;;1.60;;
9481;SDS011;4779;48.062;11.672;2024-01-30T13:00:25;5.22;;;1.80;;
9481;SDS011;4779;48.062;11.672;2024-01-30T13:02:52;2.90;;;1.67;;
9481;SDS011;4779;48.062;11.672;2024-01-30T13:05:19;2.42;;;1.70;;
9481;SDS011;4779;48.062;11.672;2024-01-30T13:07:46;3.07;;;1.70;;
9481;SDS011;4779;48.062;11.672;2024-01-30T13:10:13;3.92;;;1.67;;
9481;SDS011;4779;48.062;11.672;2024-01-30T13:12:40;2.40;;;1.93;;
9481;SDS011;4779;48.062;11.672;2024-01-30T13:15:09;4.77;;;1.60;;
9481;SDS011;4779;48.062;11.672;2024-01-30T13:17:36;3.10;;;1.60;;
9481;SDS011;4779;48.062;11.672;2024-01-30T13:20:04;4.07;;;2.07;;
9481;SDS011;4779;48.062;11.672;2024-01-30T13:22:33;2.57;;;1.80;;
9481;SDS011;4779;48.062;11.672;2024-01-30T13:25:00;4.50;;;2.17;;
9481;SDS011;4779;48.062;11.672;2024-01-30T13:27:27;6.83;;;3.20;;
9481;SDS011;4779;48.062;11.672;2024-01-30T13:29:54;6.73;;;2.97;;
9481;SDS011;4779;48.062;11.672;2024-01-30T13:32:22;5.93;;;3.20;;
9481;SDS011;4779;48.062;11.672;2024-01-30T13:34:49;5.53;;;2.90;;
9481;SDS011;4779;48.062;11.672;2024-01-30T13:37:16;5.35;;;3.63;;
9481;SDS011;4779;48.062;11.672;2024-01-30T13:39:44;2.95;;;2.40;;
9481;SDS011;4779;48.062;11.672;2024-01-30T13:42:11;3.60;;;1.80;;
9481;SDS011;4779;48.062;11.672;2024-01-30T13:44:38;2.08;;;1.80;;
9481;SDS011;4779;48.062;11.672;2024-01-30T13:47:05;3.00;;;1.70;;
9481;SDS011;4779;48.062;11.672;2024-01-30T13:49:33;2.97;;;1.60;;
9481;SDS011;4779;48.062;11.672;2024-01-30T13:52:00;2.58;;;1.67;;
9481;SDS011;4779;48.062;11.672;2024-01-30T13:54:28;3.28;;;1.88;;
9481;SDS011;4779;48.062;11.672;2024-01-30T13:56:55;3.00;;;1.65;;
9481;SDS011;4779;48.062;11.672;2024-01-30T13:59:23;6.47;;;1.67;;
9481;SDS011;4779;48.062;11.672;2024-01-30T14:01:52;4.10;;;1.80;;
9481;SDS011;4779;48.062;11.672;2024-01-30T14:04:19;2.58;;;2.03;;
9481;SDS011;4779;48.062;11.672;2024-01-30T14:06:48;3.97;;;2.05;;
9481;SDS011;4779;48.062;11.672;2024-01-30T14:09:15;4.15;;;1.40;;
9481;SDS011;4779;48.062;11.672;2024-01-30T14:11:42;3.38;;;1.83;;
9481;SDS011;4779;48.062;11.672;2024-01-30T14:14:09;2.00;;;1.73;;
9481;SDS011;4779;48.062;11.672;2024-01-30T14:16:36;2.42;;;1.70;;
9481;SDS011;4779;48.062;11.672;2024-01-30T14:19:03;4.35;;;1.85;;
9481;SDS011;4779;48.062;11.672;2024-01-30T14:21:31;3.00;;;1.60;;
9481;SDS011;4779;48.062;11.672;2024-01-30T14:23:59;2.30;;;2.00;;
9481;SDS011;4779;48.062;11.672;2024-01-30T14:26:26;5.35;;;2.30;;
9481;SDS011;4779;48.062;11.672;2024-01-30T14:28:53;2.30;;;1.95;;
9481;SDS011;4779;48.062;11.672;2024-01-30T14:31:21;3.53;;;1.83;;
9481;SDS011;4779;48.062;11.672;2024-01-30T14:33:49;2.73;;;1.77;;
9481;SDS011;4779;48.062;11.672;2024-01-30T14:36:17;4.03;;;1.70;;
9481;SDS011;4779;48.062;11.672;2024-01-30T14:38:45;4.67;;;2.10;;
9481;SDS011;4779;48.062;11.672;2024-01-30T14:41:13;5.80;;;2.50;;
9481;SDS011;4779;48.062;11.672;2024-01-30T14:43:41;6.17;;;4.57;;
9481;SDS011;4779;48.062;11.672;2024-01-30T14:46:08;14.50;;;6.50;;
9481;SDS011;4779;48.062;11.672;2024-01-30T14:48:36;10.83;;;7.23;;
9481;SDS011;4779;48.062;11.672;2024-01-30T14:51:03;9.77;;;6.40;;
9481;SDS011;4779;48.062;11.672;2024-01-30T14:53:30;11.70;;;5.70;;
9481;SDS011;4779;48.062;11.672;2024-01-30T14:55:57;9.10;;;4.60;;
9481;SDS011;4779;48.062;11.672;2024-01-30T14:58:26;7.70;;;4.23;;
9481;SDS011;4779;48.062;11.672;2024-01-30T15:00:54;7.60;;;4.30;;
9481;SDS011;4779;48.062;11.672;2024-01-30T15:03:24;9.93;;;5.40;;